PWSweather.com
Personal Weather Stations
Station Observations
THRCKWTHR1
Aveley, EssexGB RM154EL

AveleyEssexGB RM154EL

Lat: 51.5000552, Lon: 0.2501753000000235

Elevation: 98.5

Station Type: Oregon Scientific WMR88

www.facebook.com/thurrockweather

High Low Average
Temperature 41.5°F5.3°C 35.1°F1.7°C 38.7°F3.7°C
Dew Point 38.2°F3.4°C 32.3°F0.2°C 35.8°F2.1°C
Winds 14.5 mph 23.3 kmh Calm Calm 4.0 mph SE6.4 kmh SE
Wind Gusts 17.7 mph28.5 kmh -- 7.0 mph11.3 kmh
Humidity 95% 78% 89%
Pressure 29.83 in1010.2 mb 29.50 in999.0 mb -
Precipitation 0.04 in1.0 mm - -
Hour Temp Dew Point Humidity Winds Wind Gusts Pressure Precip Precip Rate Daily Precip Total
12:00 AM 35.2°F1.8°C 32.3°F0.2°C 89% Calm Calm 7.1 mph11.4 kmh 29.83 in1010.2 mb 0.00 in0.0 mm 0.00 in0.0 mm 0.00 in0.0 mm
12:05 AM 35.2°F1.8°C 32.3°F0.2°C 89% 3.8 mph S6.1 kmh S 7.1 mph11.4 kmh 29.83 in1010.2 mb 0.00 in0.0 mm 0.00 in0.0 mm 0.00 in0.0 mm
12:10 AM 35.4°F1.9°C 32.8°F0.4°C 90% 3.5 mph S5.6 kmh S 9.6 mph15.4 kmh 29.83 in1010.2 mb 0.00 in0.0 mm 0.00 in0.0 mm 0.00 in0.0 mm
12:15 AM 35.4°F1.9°C 32.8°F0.4°C 90% 1.6 mph S2.6 kmh S 9.6 mph15.4 kmh 29.83 in1010.2 mb 0.00 in0.0 mm 0.00 in0.0 mm 0.00 in0.0 mm
12:20 AM 35.4°F1.9°C 32.8°F0.4°C 90% 4.6 mph SSE7.4 kmh SSE 9.6 mph15.4 kmh 29.83 in1010.2 mb 0.00 in0.0 mm 0.00 in0.0 mm 0.00 in0.0 mm
12:25 AM 35.4°F1.9°C 32.8°F0.4°C 90% 1.6 mph SSE2.6 kmh SSE 9.6 mph15.4 kmh 29.83 in1010.2 mb 0.00 in0.0 mm 0.00 in0.0 mm 0.00 in0.0 mm
12:30 AM 35.6°F2.0°C 33.0°F0.6°C 90% 1.6 mph S2.6 kmh S 6.5 mph10.5 kmh 29.83 in1010.2 mb 0.00 in0.0 mm 0.00 in0.0 mm 0.00 in0.0 mm
12:35 AM 35.4°F1.9°C 32.8°F0.4°C 90% 4.1 mph S6.6 kmh S 6.5 mph10.5 kmh 29.83 in1010.2 mb 0.00 in0.0 mm 0.00 in0.0 mm 0.00 in0.0 mm
12:40 AM 35.4°F1.9°C 32.8°F0.4°C 90% 3.3 mph SSE5.3 kmh SSE 5.2 mph8.4 kmh 29.80 in1009.1 mb 0.00 in0.0 mm 0.00 in0.0 mm 0.00 in0.0 mm
12:45 AM 35.4°F1.9°C 33.1°F0.6°C 91% 3.8 mph SSE6.1 kmh SSE 6.0 mph9.7 kmh 29.80 in1009.1 mb 0.00 in0.0 mm 0.00 in0.0 mm 0.00 in0.0 mm
12:50 AM 35.6°F2.0°C 33.0°F0.6°C 90% 7.4 mph S11.9 kmh S 7.4 mph11.9 kmh 29.80 in1009.1 mb 0.00 in0.0 mm 0.00 in0.0 mm 0.00 in0.0 mm
12:55 AM 35.8°F2.1°C 33.4°F0.8°C 91% 6.5 mph SW10.5 kmh SW 9.8 mph15.8 kmh 29.80 in1009.1 mb 0.00 in0.0 mm 0.00 in0.0 mm 0.00 in0.0 mm
01:00 AM 36.0°F2.2°C 33.6°F0.9°C 91% 4.9 mph SW7.9 kmh SW 9.8 mph15.8 kmh 29.80 in1009.1 mb 0.00 in0.0 mm 0.00 in0.0 mm 0.00 in0.0 mm
01:05 AM 36.0°F2.2°C 33.6°F0.9°C 91% 3.8 mph SW6.1 kmh SW 9.6 mph15.4 kmh 29.80 in1009.1 mb 0.00 in0.0 mm 0.00 in0.0 mm 0.00 in0.0 mm
01:10 AM 36.0°F2.2°C 33.6°F0.9°C 91% 4.6 mph SW7.4 kmh SW 6.8 mph10.9 kmh 29.80 in1009.1 mb 0.00 in0.0 mm 0.00 in0.0 mm 0.00 in0.0 mm
01:15 AM 35.8°F2.1°C 33.4°F0.8°C 91% 1.9 mph SSW3.1 kmh SSW 4.6 mph7.4 kmh 29.80 in1009.1 mb 0.00 in0.0 mm 0.00 in0.0 mm 0.00 in0.0 mm
01:20 AM 35.8°F2.1°C 33.4°F0.8°C 91% Calm Calm 4.6 mph7.4 kmh 29.80 in1009.1 mb 0.00 in0.0 mm 0.00 in0.0 mm 0.00 in0.0 mm
01:25 AM 35.6°F2.0°C 33.2°F0.7°C 91% 2.5 mph S4.0 kmh S 9.3 mph15.0 kmh 29.80 in1009.1 mb 0.00 in0.0 mm 0.00 in0.0 mm 0.00 in0.0 mm
01:30 AM 35.6°F2.0°C 33.2°F0.7°C 91% 3.8 mph S6.1 kmh S 9.3 mph15.0 kmh 29.80 in1009.1 mb 0.00 in0.0 mm 0.00 in0.0 mm 0.00 in0.0 mm
01:35 AM 35.4°F1.9°C 33.1°F0.6°C 91% Calm Calm 3.8 mph6.1 kmh 29.80 in1009.1 mb 0.00 in0.0 mm 0.00 in0.0 mm 0.00 in0.0 mm
01:40 AM 35.4°F1.9°C 33.3°F0.7°C 92% 2.5 mph S4.0 kmh S 6.0 mph9.7 kmh 29.77 in1008.1 mb 0.00 in0.0 mm 0.00 in0.0 mm 0.00 in0.0 mm
01:45 AM 35.4°F1.9°C 33.3°F0.7°C 92% 6.5 mph SSE10.5 kmh SSE 6.5 mph10.5 kmh 29.77 in1008.1 mb 0.00 in0.0 mm 0.00 in0.0 mm 0.00 in0.0 mm
01:50 AM 35.2°F1.8°C 33.1°F0.6°C 92% Calm Calm 6.5 mph10.5 kmh 29.77 in1008.1 mb 0.00 in0.0 mm 0.00 in0.0 mm 0.00 in0.0 mm
01:55 AM 35.2°F1.8°C 33.1°F0.6°C 92% 2.7 mph SE4.3 kmh SE 6.5 mph10.5 kmh 29.77 in1008.1 mb 0.00 in0.0 mm 0.00 in0.0 mm 0.00 in0.0 mm
02:00 AM 35.1°F1.7°C 33.0°F0.6°C 92% 1.9 mph SSE3.1 kmh SSE 5.7 mph9.2 kmh 29.77 in1008.1 mb 0.00 in0.0 mm 0.00 in0.0 mm 0.00 in0.0 mm
02:05 AM 35.1°F1.7°C 33.0°F0.6°C 92% 3.8 mph SSE6.1 kmh SSE 5.7 mph9.2 kmh 29.77 in1008.1 mb 0.00 in0.0 mm 0.00 in0.0 mm 0.00 in0.0 mm
02:10 AM 35.1°F1.7°C 33.0°F0.6°C 92% Calm Calm 3.8 mph6.1 kmh 29.77 in1008.1 mb 0.00 in0.0 mm 0.00 in0.0 mm 0.00 in0.0 mm
02:15 AM 35.1°F1.7°C 33.0°F0.6°C 92% Calm Calm 4.6 mph7.4 kmh 29.77 in1008.1 mb 0.00 in0.0 mm 0.00 in0.0 mm 0.00 in0.0 mm
02:20 AM 35.1°F1.7°C 33.0°F0.6°C 92% 3.5 mph SE5.6 kmh SE 4.6 mph7.4 kmh 29.77 in1008.1 mb 0.00 in0.0 mm 0.00 in0.0 mm 0.00 in0.0 mm
02:25 AM 35.1°F1.7°C 33.0°F0.6°C 92% 2.5 mph SE4.0 kmh SE 4.1 mph6.6 kmh 29.77 in1008.1 mb 0.00 in0.0 mm 0.00 in0.0 mm 0.00 in0.0 mm
02:30 AM 35.1°F1.7°C 33.0°F0.6°C 92% Calm Calm 4.1 mph6.6 kmh 29.77 in1008.1 mb 0.00 in0.0 mm 0.00 in0.0 mm 0.00 in0.0 mm
02:35 AM 35.2°F1.8°C 33.4°F0.8°C 93% 2.5 mph SE4.0 kmh SE 3.5 mph5.6 kmh 29.77 in1008.1 mb 0.00 in0.0 mm 0.00 in0.0 mm 0.00 in0.0 mm
02:40 AM 35.4°F1.9°C 33.6°F0.9°C 93% Calm Calm 3.5 mph5.6 kmh 29.74 in1007.1 mb 0.00 in0.0 mm 0.00 in0.0 mm 0.00 in0.0 mm
02:45 AM 35.4°F1.9°C 33.6°F0.9°C 93% 1.4 mph SE2.3 kmh SE 3.3 mph5.3 kmh 29.74 in1007.1 mb 0.00 in0.0 mm 0.00 in0.0 mm 0.00 in0.0 mm
02:50 AM 35.4°F1.9°C 33.6°F0.9°C 93% Calm Calm 3.3 mph5.3 kmh 29.74 in1007.1 mb 0.00 in0.0 mm 0.00 in0.0 mm 0.00 in0.0 mm
02:55 AM 35.4°F1.9°C 33.6°F0.9°C 93% 3.0 mph SE4.8 kmh SE 6.0 mph9.7 kmh 29.74 in1007.1 mb 0.00 in0.0 mm 0.00 in0.0 mm 0.00 in0.0 mm
03:00 AM 35.4°F1.9°C 33.6°F0.9°C 93% 3.3 mph SE5.3 kmh SE 6.0 mph9.7 kmh 29.74 in1007.1 mb 0.00 in0.0 mm 0.00 in0.0 mm 0.00 in0.0 mm
03:05 AM 35.6°F2.0°C 33.8°F1.0°C 93% 1.9 mph SSE3.1 kmh SSE 3.3 mph5.3 kmh 29.74 in1007.1 mb 0.00 in0.0 mm 0.00 in0.0 mm 0.00 in0.0 mm
03:10 AM 35.6°F2.0°C 33.8°F1.0°C 93% 1.6 mph SSE2.6 kmh SSE 3.3 mph5.3 kmh 29.74 in1007.1 mb 0.00 in0.0 mm 0.00 in0.0 mm 0.00 in0.0 mm
03:15 AM 35.8°F2.1°C 34.0°F1.1°C 93% 1.6 mph S2.6 kmh S 4.1 mph6.6 kmh 29.74 in1007.1 mb 0.00 in0.0 mm 0.00 in0.0 mm 0.00 in0.0 mm
03:20 AM 35.8°F2.1°C 34.0°F1.1°C 93% 1.9 mph S3.1 kmh S 4.1 mph6.6 kmh 29.74 in1007.1 mb 0.00 in0.0 mm 0.00 in0.0 mm 0.00 in0.0 mm
03:25 AM 35.8°F2.1°C 34.0°F1.1°C 93% 1.6 mph SE2.6 kmh SE 3.0 mph4.8 kmh 29.71 in1006.1 mb 0.00 in0.0 mm 0.00 in0.0 mm 0.00 in0.0 mm
03:30 AM 35.8°F2.1°C 34.0°F1.1°C 93% 3.5 mph SE5.6 kmh SE 3.5 mph5.6 kmh 29.71 in1006.1 mb 0.00 in0.0 mm 0.00 in0.0 mm 0.00 in0.0 mm
03:35 AM 36.1°F2.3°C 34.3°F1.3°C 93% 7.6 mph S12.2 kmh S 7.6 mph12.2 kmh 29.71 in1006.1 mb 0.00 in0.0 mm 0.00 in0.0 mm 0.00 in0.0 mm
03:40 AM 36.1°F2.3°C 34.3°F1.3°C 93% 4.6 mph S7.4 kmh S 7.6 mph12.2 kmh 29.71 in1006.1 mb 0.00 in0.0 mm 0.00 in0.0 mm 0.00 in0.0 mm
03:45 AM 36.1°F2.3°C 34.0°F1.1°C 92% 3.0 mph S4.8 kmh S 7.6 mph12.2 kmh 29.71 in1006.1 mb 0.00 in0.0 mm 0.00 in0.0 mm 0.00 in0.0 mm
03:50 AM 36.1°F2.3°C 34.0°F1.1°C 92% 2.5 mph SSE4.0 kmh SSE 4.6 mph7.4 kmh 29.71 in1006.1 mb 0.00 in0.0 mm 0.00 in0.0 mm 0.00 in0.0 mm
03:55 AM 36.3°F2.4°C 34.2°F1.2°C 92% 4.9 mph SSE7.9 kmh SSE 9.0 mph14.5 kmh 29.68 in1005.1 mb 0.00 in0.0 mm 0.00 in0.0 mm 0.00 in0.0 mm
04:00 AM 36.3°F2.4°C 34.2°F1.2°C 92% 3.0 mph SE4.8 kmh SE 9.0 mph14.5 kmh 29.68 in1005.1 mb 0.00 in0.0 mm 0.00 in0.0 mm 0.00 in0.0 mm
04:05 AM 36.5°F2.5°C 34.4°F1.3°C 92% 7.9 mph SE12.7 kmh SE 7.9 mph12.7 kmh 29.68 in1005.1 mb 0.00 in0.0 mm 0.00 in0.0 mm 0.00 in0.0 mm
04:10 AM 36.7°F2.6°C 34.6°F1.4°C 92% 6.8 mph SE10.9 kmh SE 7.9 mph12.7 kmh 29.68 in1005.1 mb 0.00 in0.0 mm 0.00 in0.0 mm 0.00 in0.0 mm
04:15 AM 36.7°F2.6°C 34.6°F1.4°C 92% 1.6 mph SE2.6 kmh SE 7.9 mph12.7 kmh 29.68 in1005.1 mb 0.00 in0.0 mm 0.00 in0.0 mm 0.00 in0.0 mm
04:20 AM 36.9°F2.7°C 34.8°F1.6°C 92% 4.9 mph SE7.9 kmh SE 5.2 mph8.4 kmh 29.68 in1005.1 mb 0.00 in0.0 mm 0.00 in0.0 mm 0.00 in0.0 mm
04:25 AM 36.9°F2.7°C 34.8°F1.6°C 92% 3.0 mph SE4.8 kmh SE 7.9 mph12.7 kmh 29.68 in1005.1 mb 0.00 in0.0 mm 0.00 in0.0 mm 0.00 in0.0 mm
04:30 AM 36.9°F2.7°C 34.5°F1.4°C 91% 4.1 mph SE6.6 kmh SE 7.9 mph12.7 kmh 29.68 in1005.1 mb 0.00 in0.0 mm 0.00 in0.0 mm 0.00 in0.0 mm
04:35 AM 37.0°F2.8°C 34.7°F1.5°C 91% 3.0 mph SE4.8 kmh SE 8.5 mph13.7 kmh 29.68 in1005.1 mb 0.00 in0.0 mm 0.00 in0.0 mm 0.00 in0.0 mm
04:40 AM 37.0°F2.8°C 34.7°F1.5°C 91% 3.0 mph SE4.8 kmh SE 8.5 mph13.7 kmh 29.65 in1004.1 mb 0.00 in0.0 mm 0.00 in0.0 mm 0.00 in0.0 mm
04:45 AM 37.0°F2.8°C 34.7°F1.5°C 91% 1.6 mph SE2.6 kmh SE 5.7 mph9.2 kmh 29.65 in1004.1 mb 0.00 in0.0 mm 0.00 in0.0 mm 0.00 in0.0 mm
04:50 AM 37.2°F2.9°C 34.8°F1.6°C 91% 4.6 mph SE7.4 kmh SE 10.6 mph17.1 kmh 29.65 in1004.1 mb 0.00 in0.0 mm 0.00 in0.0 mm 0.00 in0.0 mm
04:55 AM 37.4°F3.0°C 34.7°F1.5°C 90% 9.3 mph SE15.0 kmh SE 10.6 mph17.1 kmh 29.65 in1004.1 mb 0.00 in0.0 mm 0.00 in0.0 mm 0.00 in0.0 mm
05:00 AM 37.4°F3.0°C 34.7°F1.5°C 90% 1.6 mph SE2.6 kmh SE 9.3 mph15.0 kmh 29.65 in1004.1 mb 0.00 in0.0 mm 0.00 in0.0 mm 0.00 in0.0 mm
05:05 AM 37.4°F3.0°C 34.7°F1.5°C 90% 6.0 mph SE9.7 kmh SE 7.1 mph11.4 kmh 29.65 in1004.1 mb 0.00 in0.0 mm 0.00 in0.0 mm 0.00 in0.0 mm
05:10 AM 37.4°F3.0°C 34.7°F1.5°C 90% 3.3 mph SE5.3 kmh SE 7.1 mph11.4 kmh 29.65 in1004.1 mb 0.00 in0.0 mm 0.00 in0.0 mm 0.00 in0.0 mm
05:15 AM 37.6°F3.1°C 34.9°F1.6°C 90% 4.4 mph SE7.1 kmh SE 6.0 mph9.7 kmh 29.65 in1004.1 mb 0.00 in0.0 mm 0.00 in0.0 mm 0.00 in0.0 mm
05:20 AM 37.6°F3.1°C 34.9°F1.6°C 90% 5.2 mph SE8.4 kmh SE 7.6 mph12.2 kmh 29.65 in1004.1 mb 0.00 in0.0 mm 0.00 in0.0 mm 0.00 in0.0 mm
05:25 AM 37.6°F3.1°C 34.6°F1.4°C 89% 3.0 mph SE4.8 kmh SE 9.3 mph15.0 kmh 29.65 in1004.1 mb 0.00 in0.0 mm 0.00 in0.0 mm 0.00 in0.0 mm
05:30 AM 37.6°F3.1°C 34.6°F1.4°C 89% 4.4 mph S7.1 kmh S 9.3 mph15.0 kmh 29.65 in1004.1 mb 0.00 in0.0 mm 0.00 in0.0 mm 0.00 in0.0 mm
05:35 AM 37.6°F3.1°C 34.6°F1.4°C 89% 1.9 mph S3.1 kmh S 7.9 mph12.7 kmh 29.65 in1004.1 mb 0.00 in0.0 mm 0.00 in0.0 mm 0.00 in0.0 mm
05:40 AM 37.8°F3.2°C 34.8°F1.6°C 89% 4.9 mph S7.9 kmh S 7.9 mph12.7 kmh 29.65 in1004.1 mb 0.00 in0.0 mm 0.00 in0.0 mm 0.00 in0.0 mm
05:45 AM 37.9°F3.3°C 35.0°F1.7°C 89% 6.0 mph S9.7 kmh S 6.8 mph10.9 kmh 29.65 in1004.1 mb 0.00 in0.0 mm 0.00 in0.0 mm 0.00 in0.0 mm
05:50 AM 37.9°F3.3°C 35.0°F1.7°C 89% 2.5 mph SSE4.0 kmh SSE 7.1 mph11.4 kmh 29.65 in1004.1 mb 0.00 in0.0 mm 0.00 in0.0 mm 0.00 in0.0 mm
05:55 AM 37.9°F3.3°C 35.0°F1.7°C 89% 5.2 mph SSE8.4 kmh SSE 7.1 mph11.4 kmh 29.62 in1003.0 mb 0.00 in0.0 mm 0.00 in0.0 mm 0.00 in0.0 mm
06:00 AM 37.9°F3.3°C 35.0°F1.7°C 89% 1.6 mph SSE2.6 kmh SSE 8.5 mph13.7 kmh 29.62 in1003.0 mb 0.00 in0.0 mm 0.00 in0.0 mm 0.00 in0.0 mm
06:05 AM 37.9°F3.3°C 35.0°F1.7°C 89% 3.8 mph SE6.1 kmh SE 8.5 mph13.7 kmh 29.62 in1003.0 mb 0.00 in0.0 mm 0.00 in0.0 mm 0.00 in0.0 mm
06:10 AM 38.1°F3.4°C 35.2°F1.8°C 89% 1.9 mph SSE3.1 kmh SSE 7.4 mph11.9 kmh 29.62 in1003.0 mb 0.00 in0.0 mm 0.00 in0.0 mm 0.00 in0.0 mm
06:15 AM 38.3°F3.5°C 35.1°F1.7°C 88% 2.7 mph S4.3 kmh S 6.8 mph10.9 kmh 29.62 in1003.0 mb 0.00 in0.0 mm 0.00 in0.0 mm 0.00 in0.0 mm
06:20 AM 38.3°F3.5°C 35.1°F1.7°C 88% 3.5 mph S5.6 kmh S 6.8 mph10.9 kmh 29.62 in1003.0 mb 0.00 in0.0 mm 0.00 in0.0 mm 0.00 in0.0 mm
06:25 AM 38.3°F3.5°C 35.1°F1.7°C 88% 6.0 mph SE9.7 kmh SE 6.0 mph9.7 kmh 29.62 in1003.0 mb 0.00 in0.0 mm 0.00 in0.0 mm 0.00 in0.0 mm
06:30 AM 38.5°F3.6°C 35.2°F1.8°C 88% 4.4 mph S7.1 kmh S 8.7 mph14.0 kmh 29.62 in1003.0 mb 0.00 in0.0 mm 0.00 in0.0 mm 0.00 in0.0 mm
06:35 AM 38.5°F3.6°C 35.2°F1.8°C 88% 5.2 mph S8.4 kmh S 8.7 mph14.0 kmh 29.62 in1003.0 mb 0.00 in0.0 mm 0.00 in0.0 mm 0.00 in0.0 mm
06:40 AM 38.5°F3.6°C 35.2°F1.8°C 88% 13.1 mph S21.1 kmh S 13.1 mph21.1 kmh 29.62 in1003.0 mb 0.00 in0.0 mm 0.00 in0.0 mm 0.00 in0.0 mm
06:45 AM 38.5°F3.6°C 35.2°F1.8°C 88% 3.5 mph S5.6 kmh S 13.1 mph21.1 kmh 29.62 in1003.0 mb 0.00 in0.0 mm 0.00 in0.0 mm 0.00 in0.0 mm
06:50 AM 38.5°F3.6°C 34.9°F1.6°C 87% 1.6 mph SE2.6 kmh SE 6.5 mph10.5 kmh 29.62 in1003.0 mb 0.00 in0.0 mm 0.00 in0.0 mm 0.00 in0.0 mm
06:55 AM 38.5°F3.6°C 34.9°F1.6°C 87% 12.6 mph SSE20.3 kmh SSE 12.6 mph20.3 kmh 29.62 in1003.0 mb 0.00 in0.0 mm 0.00 in0.0 mm 0.00 in0.0 mm
07:00 AM 38.5°F3.6°C 34.9°F1.6°C 87% 1.4 mph S2.3 kmh S 12.6 mph20.3 kmh 29.62 in1003.0 mb 0.00 in0.0 mm 0.00 in0.0 mm 0.00 in0.0 mm
07:05 AM 38.5°F3.6°C 34.9°F1.6°C 87% 3.8 mph SSE6.1 kmh SSE 12.6 mph20.3 kmh 29.62 in1003.0 mb 0.00 in0.0 mm 0.00 in0.0 mm 0.00 in0.0 mm
07:10 AM 38.5°F3.6°C 34.9°F1.6°C 87% 4.1 mph S6.6 kmh S 10.4 mph16.7 kmh 29.62 in1003.0 mb 0.00 in0.0 mm 0.00 in0.0 mm 0.00 in0.0 mm
07:15 AM 38.8°F3.8°C 35.3°F1.8°C 87% 4.9 mph S7.9 kmh S 10.4 mph16.7 kmh 29.62 in1003.0 mb 0.00 in0.0 mm 0.00 in0.0 mm 0.00 in0.0 mm
07:20 AM 38.8°F3.8°C 35.3°F1.8°C 87% 2.7 mph SSE4.3 kmh SSE 7.9 mph12.7 kmh 29.62 in1003.0 mb 0.00 in0.0 mm 0.00 in0.0 mm 0.00 in0.0 mm
07:25 AM 38.8°F3.8°C 35.3°F1.8°C 87% 4.1 mph S6.6 kmh S 6.8 mph10.9 kmh 29.59 in1002.0 mb 0.00 in0.0 mm 0.00 in0.0 mm 0.00 in0.0 mm
07:30 AM 39.2°F4.0°C 35.1°F1.7°C 85% 4.6 mph S7.4 kmh S 6.0 mph9.7 kmh 29.59 in1002.0 mb 0.00 in0.0 mm 0.00 in0.0 mm 0.00 in0.0 mm
07:35 AM 39.2°F4.0°C 35.1°F1.7°C 85% 3.0 mph S4.8 kmh S 9.3 mph15.0 kmh 29.59 in1002.0 mb 0.00 in0.0 mm 0.00 in0.0 mm 0.00 in0.0 mm
07:40 AM 39.4°F4.1°C 35.2°F1.8°C 85% 4.4 mph SSE7.1 kmh SSE 9.3 mph15.0 kmh 29.59 in1002.0 mb 0.00 in0.0 mm 0.00 in0.0 mm 0.00 in0.0 mm
07:45 AM 39.4°F4.1°C 35.2°F1.8°C 85% 2.7 mph S4.3 kmh S 6.5 mph10.5 kmh 29.59 in1002.0 mb 0.00 in0.0 mm 0.00 in0.0 mm 0.00 in0.0 mm
07:50 AM 39.4°F4.1°C 35.2°F1.8°C 85% 3.8 mph S6.1 kmh S 10.4 mph16.7 kmh 29.59 in1002.0 mb 0.00 in0.0 mm 0.00 in0.0 mm 0.00 in0.0 mm
07:55 AM 39.4°F4.1°C 35.2°F1.8°C 85% 3.3 mph SSE5.3 kmh SSE 10.4 mph16.7 kmh 29.59 in1002.0 mb 0.00 in0.0 mm 0.00 in0.0 mm 0.00 in0.0 mm
08:00 AM 39.4°F4.1°C 35.2°F1.8°C 85% 4.6 mph SE7.4 kmh SE 6.0 mph9.7 kmh 29.59 in1002.0 mb 0.00 in0.0 mm 0.00 in0.0 mm 0.00 in0.0 mm
08:05 AM 39.4°F4.1°C 35.2°F1.8°C 85% 4.1 mph SE6.6 kmh SE 7.4 mph11.9 kmh 29.59 in1002.0 mb 0.00 in0.0 mm 0.00 in0.0 mm 0.00 in0.0 mm
08:10 AM 39.4°F4.1°C 34.9°F1.6°C 84% 1.6 mph SSE2.6 kmh SSE 9.0 mph14.5 kmh 29.59 in1002.0 mb 0.00 in0.0 mm 0.00 in0.0 mm 0.00 in0.0 mm
08:15 AM 39.4°F4.1°C 35.2°F1.8°C 85% 9.6 mph SE15.4 kmh SE 9.6 mph15.4 kmh 29.59 in1002.0 mb 0.00 in0.0 mm 0.00 in0.0 mm 0.00 in0.0 mm
08:20 AM 39.4°F4.1°C 35.2°F1.8°C 85% 10.6 mph SSE17.1 kmh SSE 10.6 mph17.1 kmh 29.59 in1002.0 mb 0.00 in0.0 mm 0.00 in0.0 mm 0.00 in0.0 mm
08:25 AM 39.4°F4.1°C 34.9°F1.6°C 84% 4.1 mph SSW6.6 kmh SSW 10.6 mph17.1 kmh 29.56 in1001.0 mb 0.00 in0.0 mm 0.00 in0.0 mm 0.00 in0.0 mm
08:30 AM 39.6°F4.2°C 35.4°F1.9°C 85% 5.7 mph S9.2 kmh S 10.6 mph17.1 kmh 29.56 in1001.0 mb 0.00 in0.0 mm 0.00 in0.0 mm 0.00 in0.0 mm
08:35 AM 39.6°F4.2°C 35.1°F1.7°C 84% 4.9 mph S7.9 kmh S 6.5 mph10.5 kmh 29.56 in1001.0 mb 0.00 in0.0 mm 0.00 in0.0 mm 0.00 in0.0 mm
08:40 AM 39.7°F4.3°C 35.0°F1.7°C 83% 2.7 mph SSE4.3 kmh SSE 10.4 mph16.7 kmh 29.59 in1002.0 mb 0.00 in0.0 mm 0.00 in0.0 mm 0.00 in0.0 mm
08:45 AM 39.9°F4.4°C 35.2°F1.8°C 83% 3.3 mph SSE5.3 kmh SSE 10.4 mph16.7 kmh 29.59 in1002.0 mb 0.00 in0.0 mm 0.00 in0.0 mm 0.00 in0.0 mm
08:50 AM 40.1°F4.5°C 35.4°F1.9°C 83% 2.5 mph SSE4.0 kmh SSE 11.7 mph18.8 kmh 29.59 in1002.0 mb 0.00 in0.0 mm 0.00 in0.0 mm 0.00 in0.0 mm
08:55 AM 40.3°F4.6°C 35.2°F1.8°C 82% 4.6 mph SE7.4 kmh SE 11.7 mph18.8 kmh 29.56 in1001.0 mb 0.00 in0.0 mm 0.00 in0.0 mm 0.00 in0.0 mm
09:00 AM 40.3°F4.6°C 35.2°F1.8°C 82% 9.0 mph SE14.5 kmh SE 14.7 mph23.7 kmh 29.56 in1001.0 mb 0.00 in0.0 mm 0.00 in0.0 mm 0.00 in0.0 mm
09:05 AM 40.5°F4.7°C 35.4°F1.9°C 82% 4.1 mph SE6.6 kmh SE 14.7 mph23.7 kmh 29.56 in1001.0 mb 0.00 in0.0 mm 0.00 in0.0 mm 0.00 in0.0 mm
09:10 AM 40.3°F4.6°C 35.5°F1.9°C 83% 11.2 mph SE18.0 kmh SE 11.7 mph18.8 kmh 29.56 in1001.0 mb 0.00 in0.0 mm 0.00 in0.0 mm 0.00 in0.0 mm
09:15 AM 40.5°F4.7°C 35.7°F2.1°C 83% 3.0 mph SSE4.8 kmh SSE 11.2 mph18.0 kmh 29.56 in1001.0 mb 0.00 in0.0 mm 0.00 in0.0 mm 0.00 in0.0 mm
09:20 AM 40.5°F4.7°C 35.7°F2.1°C 83% 2.5 mph SSE4.0 kmh SSE 11.2 mph18.0 kmh 29.56 in1001.0 mb 0.00 in0.0 mm 0.00 in0.0 mm 0.00 in0.0 mm
09:25 AM 40.6°F4.8°C 35.6°F2.0°C 82% 7.4 mph SE11.9 kmh SE 10.9 mph17.5 kmh 29.56 in1001.0 mb 0.00 in0.0 mm 0.00 in0.0 mm 0.00 in0.0 mm
09:30 AM 40.6°F4.8°C 35.6°F2.0°C 82% 4.1 mph SE6.6 kmh SE 10.4 mph16.7 kmh 29.56 in1001.0 mb 0.00 in0.0 mm 0.00 in0.0 mm 0.00 in0.0 mm
09:35 AM 40.8°F4.9°C 35.7°F2.1°C 82% 2.5 mph SSE4.0 kmh SSE 5.2 mph8.4 kmh 29.56 in1001.0 mb 0.00 in0.0 mm 0.00 in0.0 mm 0.00 in0.0 mm
09:40 AM 41.0°F5.0°C 35.6°F2.0°C 81% 6.5 mph SE10.5 kmh SE 6.5 mph10.5 kmh 29.56 in1001.0 mb 0.00 in0.0 mm 0.00 in0.0 mm 0.00 in0.0 mm
09:45 AM 41.0°F5.0°C 35.3°F1.8°C 80% 7.4 mph S11.9 kmh S 12.6 mph20.3 kmh 29.56 in1001.0 mb 0.00 in0.0 mm 0.00 in0.0 mm 0.00 in0.0 mm
09:50 AM 41.0°F5.0°C 35.3°F1.8°C 80% 7.6 mph S12.2 kmh S 12.6 mph20.3 kmh 29.56 in1001.0 mb 0.00 in0.0 mm 0.00 in0.0 mm 0.00 in0.0 mm
09:55 AM 41.0°F5.0°C 35.6°F2.0°C 81% 5.5 mph SSE8.9 kmh SSE 9.3 mph15.0 kmh 29.56 in1001.0 mb 0.00 in0.0 mm 0.00 in0.0 mm 0.00 in0.0 mm
10:00 AM 41.2°F5.1°C 35.8°F2.1°C 81% 8.7 mph SSE14.0 kmh SSE 9.3 mph15.0 kmh 29.56 in1001.0 mb 0.00 in0.0 mm 0.00 in0.0 mm 0.00 in0.0 mm
10:05 AM 41.2°F5.1°C 35.8°F2.1°C 81% 4.9 mph S7.9 kmh S 8.7 mph14.0 kmh 29.56 in1001.0 mb 0.00 in0.0 mm 0.00 in0.0 mm 0.00 in0.0 mm
10:10 AM 41.0°F5.0°C 35.3°F1.8°C 80% 1.9 mph SSW3.1 kmh SSW 17.7 mph28.5 kmh 29.56 in1001.0 mb 0.00 in0.0 mm 0.00 in0.0 mm 0.00 in0.0 mm
10:15 AM 41.0°F5.0°C 35.6°F2.0°C 81% 4.6 mph S7.4 kmh S 17.7 mph28.5 kmh 29.56 in1001.0 mb 0.00 in0.0 mm 0.00 in0.0 mm 0.00 in0.0 mm
10:20 AM 41.2°F5.1°C 35.5°F1.9°C 80% 3.3 mph S5.3 kmh S 7.4 mph11.9 kmh 29.56 in1001.0 mb 0.00 in0.0 mm 0.00 in0.0 mm 0.00 in0.0 mm
10:25 AM 41.2°F5.1°C 35.8°F2.1°C 81% 3.3 mph S5.3 kmh S 7.4 mph11.9 kmh 29.56 in1001.0 mb 0.00 in0.0 mm 0.00 in0.0 mm 0.00 in0.0 mm
10:30 AM 41.2°F5.1°C 35.8°F2.1°C 81% 7.4 mph SSE11.9 kmh SSE 15.6 mph25.1 kmh 29.56 in1001.0 mb 0.00 in0.0 mm 0.00 in0.0 mm 0.00 in0.0 mm
10:35 AM 41.2°F5.1°C 35.5°F1.9°C 80% 6.8 mph SSE10.9 kmh SSE 15.6 mph25.1 kmh 29.56 in1001.0 mb 0.00 in0.0 mm 0.00 in0.0 mm 0.00 in0.0 mm
10:40 AM 41.2°F5.1°C 35.5°F1.9°C 80% 3.3 mph SSE5.3 kmh SSE 6.8 mph10.9 kmh 29.56 in1001.0 mb 0.00 in0.0 mm 0.00 in0.0 mm 0.00 in0.0 mm
10:45 AM 41.2°F5.1°C 35.5°F1.9°C 80% 6.8 mph SSE10.9 kmh SSE 8.5 mph13.7 kmh 29.56 in1001.0 mb 0.00 in0.0 mm 0.00 in0.0 mm 0.00 in0.0 mm
10:50 AM 41.2°F5.1°C 35.5°F1.9°C 80% 5.2 mph SSE8.4 kmh SSE 8.5 mph13.7 kmh 29.56 in1001.0 mb 0.00 in0.0 mm 0.00 in0.0 mm 0.00 in0.0 mm
10:55 AM 41.2°F5.1°C 35.5°F1.9°C 80% 4.9 mph S7.9 kmh S 7.6 mph12.2 kmh 29.56 in1001.0 mb 0.00 in0.0 mm 0.00 in0.0 mm 0.00 in0.0 mm
11:00 AM 41.2°F5.1°C 35.2°F1.8°C 79% 3.3 mph SSE5.3 kmh SSE 9.0 mph14.5 kmh 29.56 in1001.0 mb 0.00 in0.0 mm 0.00 in0.0 mm 0.00 in0.0 mm
11:05 AM 41.2°F5.1°C 35.2°F1.8°C 79% 3.3 mph SSE5.3 kmh SSE 9.0 mph14.5 kmh 29.56 in1001.0 mb 0.00 in0.0 mm 0.00 in0.0 mm 0.00 in0.0 mm
11:10 AM 41.2°F5.1°C 35.5°F1.9°C 80% 3.0 mph S4.8 kmh S 6.0 mph9.7 kmh 29.56 in1001.0 mb 0.00 in0.0 mm 0.00 in0.0 mm 0.00 in0.0 mm
11:15 AM 41.2°F5.1°C 35.2°F1.8°C 79% 3.8 mph SSE6.1 kmh SSE 6.8 mph10.9 kmh 29.56 in1001.0 mb 0.00 in0.0 mm 0.00 in0.0 mm 0.00 in0.0 mm
11:20 AM 41.2°F5.1°C 35.2°F1.8°C 79% 4.1 mph SSE6.6 kmh SSE 10.4 mph16.7 kmh 29.56 in1001.0 mb 0.00 in0.0 mm 0.00 in0.0 mm 0.00 in0.0 mm
11:25 AM 41.4°F5.2°C 35.0°F1.7°C 78% 4.9 mph SSE7.9 kmh SSE 10.4 mph16.7 kmh 29.53 in1000.0 mb 0.00 in0.0 mm 0.00 in0.0 mm 0.00 in0.0 mm
11:30 AM 41.5°F5.3°C 35.2°F1.8°C 78% 4.6 mph S7.4 kmh S 9.8 mph15.8 kmh 29.53 in1000.0 mb 0.00 in0.0 mm 0.00 in0.0 mm 0.00 in0.0 mm
11:35 AM 41.5°F5.3°C 36.1°F2.3°C 81% 3.8 mph SSE6.1 kmh SSE 11.7 mph18.8 kmh 29.53 in1000.0 mb 0.00 in0.0 mm 0.00 in0.0 mm 0.00 in0.0 mm
11:40 AM 41.2°F5.1°C 36.4°F2.4°C 83% 5.2 mph SSE8.4 kmh SSE 11.7 mph18.8 kmh 29.53 in1000.0 mb 0.00 in0.0 mm 0.00 in0.0 mm 0.00 in0.0 mm
11:45 AM 41.0°F5.0°C 36.5°F2.5°C 84% 2.5 mph S4.0 kmh S 10.6 mph17.1 kmh 29.53 in1000.0 mb 0.00 in0.0 mm 0.00 in0.0 mm 0.00 in0.0 mm
11:50 AM 40.8°F4.9°C 37.0°F2.8°C 86% 4.6 mph S7.4 kmh S 6.8 mph10.9 kmh 29.53 in1000.0 mb 0.00 in0.0 mm 0.00 in0.0 mm 0.00 in0.0 mm
11:55 AM 40.6°F4.8°C 36.8°F2.7°C 86% 4.1 mph S6.6 kmh S 7.4 mph11.9 kmh 29.53 in1000.0 mb 0.00 in0.0 mm 0.00 in0.0 mm 0.00 in0.0 mm
12:00 PM 40.3°F4.6°C 36.7°F2.6°C 87% 1.4 mph SSE2.3 kmh SSE 7.4 mph11.9 kmh 29.53 in1000.0 mb 0.00 in0.0 mm 0.00 in0.0 mm 0.00 in0.0 mm
12:05 PM 40.1°F4.5°C 36.8°F2.7°C 88% 3.0 mph SSE4.8 kmh SSE 7.4 mph11.9 kmh 29.53 in1000.0 mb 0.00 in0.0 mm 0.00 in0.0 mm 0.00 in0.0 mm
12:10 PM 39.7°F4.3°C 36.5°F2.5°C 88% 4.1 mph S6.6 kmh S 9.6 mph15.4 kmh 29.53 in1000.0 mb 0.00 in0.0 mm 0.00 in0.0 mm 0.00 in0.0 mm
12:15 PM 39.4°F4.1°C 36.4°F2.4°C 89% 5.2 mph SSW8.4 kmh SSW 9.6 mph15.4 kmh 29.53 in1000.0 mb 0.00 in0.0 mm 0.00 in0.0 mm 0.00 in0.0 mm
12:20 PM 39.2°F4.0°C 36.2°F2.3°C 89% 3.0 mph S4.8 kmh S 7.6 mph12.2 kmh 29.53 in1000.0 mb 0.00 in0.0 mm 0.00 in0.0 mm 0.00 in0.0 mm
12:25 PM 39.0°F3.9°C 36.3°F2.4°C 90% 4.4 mph SSE7.1 kmh SSE 7.6 mph12.2 kmh 29.53 in1000.0 mb 0.00 in0.0 mm 0.00 in0.0 mm 0.00 in0.0 mm
12:30 PM 39.2°F4.0°C 36.5°F2.5°C 90% 4.9 mph S7.9 kmh S 14.7 mph23.7 kmh 29.53 in1000.0 mb 0.00 in0.0 mm 0.00 in0.0 mm 0.00 in0.0 mm
12:35 PM 39.4°F4.1°C 37.0°F2.8°C 91% 1.6 mph S2.6 kmh S 14.7 mph23.7 kmh 29.53 in1000.0 mb 0.00 in0.0 mm 0.00 in0.0 mm 0.00 in0.0 mm
12:40 PM 39.6°F4.2°C 37.2°F2.9°C 91% 2.5 mph SSE4.0 kmh SSE 16.9 mph27.2 kmh 29.53 in1000.0 mb 0.04 in1.0 mm 0.48 in12.2 mm 0.04 in1.0 mm
12:45 PM 39.9°F4.4°C 37.5°F3.1°C 91% 4.1 mph SSE6.6 kmh SSE 16.9 mph27.2 kmh 29.53 in1000.0 mb 0.04 in1.0 mm 0.00 in0.0 mm 0.04 in1.0 mm
12:50 PM 39.9°F4.4°C 37.5°F3.1°C 91% 1.6 mph SE2.6 kmh SE 7.9 mph12.7 kmh 29.53 in1000.0 mb 0.04 in1.0 mm 0.00 in0.0 mm 0.04 in1.0 mm
12:55 PM 39.9°F4.4°C 37.5°F3.1°C 91% 3.0 mph SE4.8 kmh SE 7.9 mph12.7 kmh 29.53 in1000.0 mb 0.04 in1.0 mm 0.00 in0.0 mm 0.04 in1.0 mm
01:00 PM 40.1°F4.5°C 37.7°F3.2°C 91% 9.0 mph SSE14.5 kmh SSE 12.3 mph19.8 kmh 29.53 in1000.0 mb 0.04 in1.0 mm 0.00 in0.0 mm 0.04 in1.0 mm
01:05 PM 40.3°F4.6°C 37.9°F3.3°C 91% 7.4 mph SSE11.9 kmh SSE 12.3 mph19.8 kmh 29.53 in1000.0 mb 0.04 in1.0 mm 0.00 in0.0 mm 0.04 in1.0 mm
01:10 PM 40.1°F4.5°C 37.7°F3.2°C 91% 6.8 mph SSE10.9 kmh SSE 9.0 mph14.5 kmh 29.53 in1000.0 mb 0.04 in1.0 mm 0.00 in0.0 mm 0.04 in1.0 mm
01:15 PM 40.1°F4.5°C 37.7°F3.2°C 91% 7.9 mph SE12.7 kmh SE 12.0 mph19.3 kmh 29.53 in1000.0 mb 0.04 in1.0 mm 0.00 in0.0 mm 0.04 in1.0 mm
01:20 PM 40.1°F4.5°C 37.7°F3.2°C 91% 2.5 mph SE4.0 kmh SE 13.4 mph21.6 kmh 29.53 in1000.0 mb 0.04 in1.0 mm 0.00 in0.0 mm 0.04 in1.0 mm
01:25 PM 40.3°F4.6°C 37.9°F3.3°C 91% 5.2 mph SSE8.4 kmh SSE 14.5 mph23.3 kmh 29.53 in1000.0 mb 0.04 in1.0 mm 0.00 in0.0 mm 0.04 in1.0 mm
01:30 PM 40.3°F4.6°C 38.1°F3.4°C 92% 5.7 mph SSE9.2 kmh SSE 14.5 mph23.3 kmh 29.53 in1000.0 mb 0.04 in1.0 mm 0.00 in0.0 mm 0.04 in1.0 mm
01:35 PM 40.3°F4.6°C 38.1°F3.4°C 92% 3.3 mph SE5.3 kmh SE 7.4 mph11.9 kmh 29.53 in1000.0 mb 0.00 in0.0 mm 0.00 in0.0 mm 0.04 in1.0 mm
01:40 PM 40.1°F4.5°C 37.7°F3.2°C 91% 7.1 mph SSE11.4 kmh SSE 7.4 mph11.9 kmh 29.53 in1000.0 mb 0.00 in0.0 mm 0.00 in0.0 mm 0.04 in1.0 mm
01:45 PM 40.1°F4.5°C 38.0°F3.3°C 92% 4.6 mph S7.4 kmh S 7.1 mph11.4 kmh 29.53 in1000.0 mb 0.00 in0.0 mm 0.00 in0.0 mm 0.04 in1.0 mm
01:50 PM 39.9°F4.4°C 37.8°F3.2°C 92% 1.4 mph S2.3 kmh S 7.1 mph11.4 kmh 29.53 in1000.0 mb 0.00 in0.0 mm 0.00 in0.0 mm 0.04 in1.0 mm
01:55 PM 39.9°F4.4°C 37.8°F3.2°C 92% 3.3 mph SSW5.3 kmh SSW 7.6 mph12.2 kmh 29.53 in1000.0 mb 0.00 in0.0 mm 0.00 in0.0 mm 0.04 in1.0 mm
02:00 PM 39.9°F4.4°C 37.8°F3.2°C 92% 4.9 mph SE7.9 kmh SE 13.4 mph21.6 kmh 29.53 in1000.0 mb 0.00 in0.0 mm 0.00 in0.0 mm 0.04 in1.0 mm
02:05 PM 40.1°F4.5°C 38.0°F3.3°C 92% 1.4 mph SE2.3 kmh SE 13.4 mph21.6 kmh 29.53 in1000.0 mb 0.00 in0.0 mm 0.00 in0.0 mm 0.04 in1.0 mm
02:10 PM 40.3°F4.6°C 38.1°F3.4°C 92% 4.9 mph SE7.9 kmh SE 5.2 mph8.4 kmh 29.53 in1000.0 mb 0.00 in0.0 mm 0.00 in0.0 mm 0.04 in1.0 mm
02:15 PM 40.6°F4.8°C 38.2°F3.4°C 91% 1.4 mph SSE2.3 kmh SSE 15.6 mph25.1 kmh 29.53 in1000.0 mb 0.00 in0.0 mm 0.00 in0.0 mm 0.04 in1.0 mm
02:20 PM 40.6°F4.8°C 38.2°F3.4°C 91% 2.5 mph SSE4.0 kmh SSE 15.6 mph25.1 kmh 29.53 in1000.0 mb 0.00 in0.0 mm 0.00 in0.0 mm 0.04 in1.0 mm
02:25 PM 40.8°F4.9°C 38.1°F3.4°C 90% 5.2 mph ESE8.4 kmh ESE 9.6 mph15.4 kmh 29.50 in999.0 mb 0.00 in0.0 mm 0.00 in0.0 mm 0.04 in1.0 mm
02:30 PM 40.6°F4.8°C 37.9°F3.3°C 90% 4.1 mph SE6.6 kmh SE 9.6 mph15.4 kmh 29.50 in999.0 mb 0.00 in0.0 mm 0.00 in0.0 mm 0.04 in1.0 mm
02:35 PM 40.8°F4.9°C 37.8°F3.2°C 89% 7.4 mph SSE11.9 kmh SSE 13.1 mph21.1 kmh 29.50 in999.0 mb 0.00 in0.0 mm 0.00 in0.0 mm 0.04 in1.0 mm
02:40 PM 40.8°F4.9°C 37.8°F3.2°C 89% 2.5 mph SE4.0 kmh SE 13.1 mph21.1 kmh 29.50 in999.0 mb 0.00 in0.0 mm 0.00 in0.0 mm 0.04 in1.0 mm
02:45 PM 40.6°F4.8°C 37.7°F3.2°C 89% 3.8 mph SSE6.1 kmh SSE 7.4 mph11.9 kmh 29.50 in999.0 mb 0.00 in0.0 mm 0.00 in0.0 mm 0.04 in1.0 mm
02:50 PM 40.8°F4.9°C 37.5°F3.1°C 88% 4.1 mph SSE6.6 kmh SSE 7.6 mph12.2 kmh 29.50 in999.0 mb 0.00 in0.0 mm 0.00 in0.0 mm 0.04 in1.0 mm
02:55 PM 40.6°F4.8°C 37.4°F3.0°C 88% 4.1 mph S6.6 kmh S 9.0 mph14.5 kmh 29.50 in999.0 mb 0.00 in0.0 mm 0.00 in0.0 mm 0.04 in1.0 mm
03:00 PM 40.5°F4.7°C 37.2°F2.9°C 88% 3.5 mph S5.6 kmh S 11.5 mph18.5 kmh 29.50 in999.0 mb 0.00 in0.0 mm 0.00 in0.0 mm 0.04 in1.0 mm
03:05 PM 40.5°F4.7°C 37.2°F2.9°C 88% 4.4 mph SSE7.1 kmh SSE 11.5 mph18.5 kmh 29.50 in999.0 mb 0.00 in0.0 mm 0.00 in0.0 mm 0.04 in1.0 mm
03:10 PM 40.5°F4.7°C 37.2°F2.9°C 88% 7.1 mph SE11.4 kmh SE 13.4 mph21.6 kmh 29.50 in999.0 mb 0.00 in0.0 mm 0.00 in0.0 mm 0.04 in1.0 mm
03:15 PM 40.3°F4.6°C 37.0°F2.8°C 88% 10.4 mph SE16.7 kmh SE 13.4 mph21.6 kmh 29.50 in999.0 mb 0.00 in0.0 mm 0.00 in0.0 mm 0.04 in1.0 mm
03:20 PM 40.3°F4.6°C 37.0°F2.8°C 88% 7.6 mph SE12.2 kmh SE 10.4 mph16.7 kmh 29.50 in999.0 mb 0.00 in0.0 mm 0.00 in0.0 mm 0.04 in1.0 mm
03:25 PM 39.9°F4.4°C 36.7°F2.6°C 88% 14.5 mph SE23.3 kmh SE 14.5 mph23.3 kmh 29.53 in1000.0 mb 0.00 in0.0 mm 0.00 in0.0 mm 0.04 in1.0 mm
03:30 PM 39.7°F4.3°C 36.5°F2.5°C 88% 7.9 mph SE12.7 kmh SE 14.5 mph23.3 kmh 29.53 in1000.0 mb 0.00 in0.0 mm 0.00 in0.0 mm 0.04 in1.0 mm
03:35 PM 39.7°F4.3°C 36.5°F2.5°C 88% 1.4 mph SE2.3 kmh SE 14.5 mph23.3 kmh 29.53 in1000.0 mb 0.00 in0.0 mm 0.00 in0.0 mm 0.04 in1.0 mm
03:40 PM 39.6°F4.2°C 36.3°F2.4°C 88% 1.9 mph SSE3.1 kmh SSE 11.5 mph18.5 kmh 29.53 in1000.0 mb 0.00 in0.0 mm 0.00 in0.0 mm 0.04 in1.0 mm
03:50 PM 39.4°F4.1°C 36.4°F2.4°C 89% 3.0 mph SE4.8 kmh SE 7.4 mph11.9 kmh 29.53 in1000.0 mb 0.00 in0.0 mm 0.00 in0.0 mm 0.04 in1.0 mm
03:55 PM 39.4°F4.1°C 36.4°F2.4°C 89% 3.5 mph SSE5.6 kmh SSE 7.4 mph11.9 kmh 29.53 in1000.0 mb 0.00 in0.0 mm 0.00 in0.0 mm 0.04 in1.0 mm
04:00 PM 39.4°F4.1°C 36.4°F2.4°C 89% 1.9 mph SE3.1 kmh SE 7.6 mph12.2 kmh 29.53 in1000.0 mb 0.00 in0.0 mm 0.00 in0.0 mm 0.04 in1.0 mm
04:05 PM 39.4°F4.1°C 36.4°F2.4°C 89% 4.1 mph SE6.6 kmh SE 7.6 mph12.2 kmh 29.53 in1000.0 mb 0.00 in0.0 mm 0.00 in0.0 mm 0.04 in1.0 mm
04:10 PM 39.4°F4.1°C 36.4°F2.4°C 89% 6.0 mph SE9.7 kmh SE 11.5 mph18.5 kmh 29.56 in1001.0 mb 0.00 in0.0 mm 0.00 in0.0 mm 0.04 in1.0 mm
04:15 PM 39.2°F4.0°C 36.2°F2.3°C 89% 3.8 mph SSE6.1 kmh SSE 11.5 mph18.5 kmh 29.56 in1001.0 mb 0.00 in0.0 mm 0.00 in0.0 mm 0.04 in1.0 mm
04:20 PM 39.2°F4.0°C 36.2°F2.3°C 89% 3.3 mph SSE5.3 kmh SSE 10.4 mph16.7 kmh 29.56 in1001.0 mb 0.00 in0.0 mm 0.00 in0.0 mm 0.04 in1.0 mm
04:25 PM 39.2°F4.0°C 36.2°F2.3°C 89% 1.1 mph SSE1.8 kmh SSE 7.9 mph12.7 kmh 29.56 in1001.0 mb 0.00 in0.0 mm 0.00 in0.0 mm 0.04 in1.0 mm
04:30 PM 39.2°F4.0°C 36.2°F2.3°C 89% 3.0 mph SSE4.8 kmh SSE 8.7 mph14.0 kmh 29.56 in1001.0 mb 0.00 in0.0 mm 0.00 in0.0 mm 0.04 in1.0 mm
04:35 PM 39.2°F4.0°C 36.2°F2.3°C 89% 6.8 mph SE10.9 kmh SE 10.6 mph17.1 kmh 29.56 in1001.0 mb 0.00 in0.0 mm 0.00 in0.0 mm 0.04 in1.0 mm
04:40 PM 39.2°F4.0°C 36.2°F2.3°C 89% 3.0 mph SE4.8 kmh SE 10.6 mph17.1 kmh 29.56 in1001.0 mb 0.00 in0.0 mm 0.00 in0.0 mm 0.04 in1.0 mm
04:45 PM 39.0°F3.9°C 36.3°F2.4°C 90% 6.0 mph SSE9.7 kmh SSE 6.8 mph10.9 kmh 29.56 in1001.0 mb 0.00 in0.0 mm 0.00 in0.0 mm 0.04 in1.0 mm
04:50 PM 39.0°F3.9°C 36.3°F2.4°C 90% 8.5 mph S13.7 kmh S 8.5 mph13.7 kmh 29.56 in1001.0 mb 0.00 in0.0 mm 0.00 in0.0 mm 0.04 in1.0 mm
04:55 PM 39.0°F3.9°C 36.3°F2.4°C 90% 4.4 mph SSE7.1 kmh SSE 8.5 mph13.7 kmh 29.56 in1001.0 mb 0.00 in0.0 mm 0.00 in0.0 mm 0.04 in1.0 mm
05:00 PM 39.0°F3.9°C 36.3°F2.4°C 90% 1.6 mph SE2.6 kmh SE 8.5 mph13.7 kmh 29.56 in1001.0 mb 0.00 in0.0 mm 0.00 in0.0 mm 0.04 in1.0 mm
05:05 PM 39.0°F3.9°C 36.3°F2.4°C 90% 3.8 mph SE6.1 kmh SE 6.0 mph9.7 kmh 29.56 in1001.0 mb 0.00 in0.0 mm 0.00 in0.0 mm 0.04 in1.0 mm
05:10 PM 39.0°F3.9°C 36.3°F2.4°C 90% 4.4 mph SE7.1 kmh SE 5.7 mph9.2 kmh 29.56 in1001.0 mb 0.00 in0.0 mm 0.00 in0.0 mm 0.04 in1.0 mm
05:15 PM 38.8°F3.8°C 36.2°F2.3°C 90% 4.1 mph SSE6.6 kmh SSE 9.3 mph15.0 kmh 29.56 in1001.0 mb 0.00 in0.0 mm 0.00 in0.0 mm 0.04 in1.0 mm
05:20 PM 38.8°F3.8°C 36.2°F2.3°C 90% 3.3 mph SSE5.3 kmh SSE 9.3 mph15.0 kmh 29.56 in1001.0 mb 0.00 in0.0 mm 0.00 in0.0 mm 0.04 in1.0 mm
05:25 PM 38.8°F3.8°C 36.2°F2.3°C 90% 3.5 mph SE5.6 kmh SE 6.0 mph9.7 kmh 29.59 in1002.0 mb 0.00 in0.0 mm 0.00 in0.0 mm 0.04 in1.0 mm
05:30 PM 38.8°F3.8°C 36.2°F2.3°C 90% 3.8 mph SSE6.1 kmh SSE 9.0 mph14.5 kmh 29.59 in1002.0 mb 0.00 in0.0 mm 0.00 in0.0 mm 0.04 in1.0 mm
05:35 PM 38.8°F3.8°C 36.2°F2.3°C 90% 5.2 mph SE8.4 kmh SE 9.0 mph14.5 kmh 29.59 in1002.0 mb 0.00 in0.0 mm 0.00 in0.0 mm 0.04 in1.0 mm
05:40 PM 38.8°F3.8°C 36.2°F2.3°C 90% 5.7 mph SE9.2 kmh SE 9.0 mph14.5 kmh 29.59 in1002.0 mb 0.00 in0.0 mm 0.00 in0.0 mm 0.04 in1.0 mm
05:45 PM 38.8°F3.8°C 36.2°F2.3°C 90% 8.7 mph SSE14.0 kmh SSE 8.7 mph14.0 kmh 29.59 in1002.0 mb 0.00 in0.0 mm 0.00 in0.0 mm 0.04 in1.0 mm
05:50 PM 38.8°F3.8°C 36.4°F2.4°C 91% 4.6 mph SSE7.4 kmh SSE 8.7 mph14.0 kmh 29.59 in1002.0 mb 0.00 in0.0 mm 0.00 in0.0 mm 0.04 in1.0 mm
05:55 PM 39.0°F3.9°C 36.6°F2.6°C 91% 6.0 mph SE9.7 kmh SE 8.7 mph14.0 kmh 29.59 in1002.0 mb 0.00 in0.0 mm 0.00 in0.0 mm 0.04 in1.0 mm
06:00 PM 39.0°F3.9°C 36.6°F2.6°C 91% 4.9 mph SE7.9 kmh SE 7.9 mph12.7 kmh 29.59 in1002.0 mb 0.00 in0.0 mm 0.00 in0.0 mm 0.04 in1.0 mm
06:05 PM 39.0°F3.9°C 36.6°F2.6°C 91% 3.3 mph SE5.3 kmh SE 6.0 mph9.7 kmh 29.59 in1002.0 mb 0.00 in0.0 mm 0.00 in0.0 mm 0.04 in1.0 mm
06:10 PM 39.0°F3.9°C 36.6°F2.6°C 91% 4.1 mph SE6.6 kmh SE 5.7 mph9.2 kmh 29.59 in1002.0 mb 0.00 in0.0 mm 0.00 in0.0 mm 0.04 in1.0 mm
06:15 PM 39.0°F3.9°C 36.6°F2.6°C 91% 1.4 mph SE2.3 kmh SE 8.5 mph13.7 kmh 29.59 in1002.0 mb 0.00 in0.0 mm 0.00 in0.0 mm 0.04 in1.0 mm
06:20 PM 39.2°F4.0°C 36.8°F2.7°C 91% 4.4 mph SE7.1 kmh SE 8.5 mph13.7 kmh 29.59 in1002.0 mb 0.00 in0.0 mm 0.00 in0.0 mm 0.04 in1.0 mm
06:25 PM 39.2°F4.0°C 36.8°F2.7°C 91% 8.2 mph SE13.2 kmh SE 8.2 mph13.2 kmh 29.59 in1002.0 mb 0.00 in0.0 mm 0.00 in0.0 mm 0.04 in1.0 mm
06:30 PM 39.2°F4.0°C 36.8°F2.7°C 91% 6.0 mph SE9.7 kmh SE 8.2 mph13.2 kmh 29.59 in1002.0 mb 0.00 in0.0 mm 0.00 in0.0 mm 0.04 in1.0 mm
06:35 PM 39.2°F4.0°C 36.8°F2.7°C 91% 6.8 mph SE10.9 kmh SE 6.8 mph10.9 kmh 29.59 in1002.0 mb 0.00 in0.0 mm 0.00 in0.0 mm 0.04 in1.0 mm
06:40 PM 39.2°F4.0°C 36.8°F2.7°C 91% 4.9 mph SE7.9 kmh SE 6.8 mph10.9 kmh 29.59 in1002.0 mb 0.00 in0.0 mm 0.00 in0.0 mm 0.04 in1.0 mm
06:45 PM 39.2°F4.0°C 36.8°F2.7°C 91% 6.5 mph SE10.5 kmh SE 6.8 mph10.9 kmh 29.59 in1002.0 mb 0.00 in0.0 mm 0.00 in0.0 mm 0.04 in1.0 mm
06:50 PM 39.2°F4.0°C 36.8°F2.7°C 91% 3.8 mph SE6.1 kmh SE 7.9 mph12.7 kmh 29.59 in1002.0 mb 0.00 in0.0 mm 0.00 in0.0 mm 0.04 in1.0 mm
06:55 PM 39.2°F4.0°C 36.8°F2.7°C 91% 4.1 mph SE6.6 kmh SE 7.9 mph12.7 kmh 29.59 in1002.0 mb 0.00 in0.0 mm 0.00 in0.0 mm 0.04 in1.0 mm
07:00 PM 39.0°F3.9°C 36.9°F2.7°C 92% 5.2 mph SE8.4 kmh SE 5.2 mph8.4 kmh 29.59 in1002.0 mb 0.00 in0.0 mm 0.00 in0.0 mm 0.04 in1.0 mm
07:05 PM 39.0°F3.9°C 36.9°F2.7°C 92% 4.4 mph SE7.1 kmh SE 5.2 mph8.4 kmh 29.59 in1002.0 mb 0.00 in0.0 mm 0.00 in0.0 mm 0.04 in1.0 mm
07:10 PM 39.0°F3.9°C 36.9°F2.7°C 92% Calm Calm 5.2 mph8.4 kmh 29.62 in1003.0 mb 0.00 in0.0 mm 0.00 in0.0 mm 0.04 in1.0 mm
07:15 PM 39.0°F3.9°C 36.9°F2.7°C 92% 3.3 mph SE5.3 kmh SE 5.2 mph8.4 kmh 29.62 in1003.0 mb 0.00 in0.0 mm 0.00 in0.0 mm 0.04 in1.0 mm
07:20 PM 39.0°F3.9°C 36.9°F2.7°C 92% 4.1 mph SE6.6 kmh SE 7.4 mph11.9 kmh 29.62 in1003.0 mb 0.00 in0.0 mm 0.00 in0.0 mm 0.04 in1.0 mm
07:25 PM 39.0°F3.9°C 36.9°F2.7°C 92% 3.5 mph SE5.6 kmh SE 7.4 mph11.9 kmh 29.62 in1003.0 mb 0.00 in0.0 mm 0.00 in0.0 mm 0.04 in1.0 mm
07:30 PM 39.0°F3.9°C 36.9°F2.7°C 92% 2.7 mph SE4.3 kmh SE 4.1 mph6.6 kmh 29.62 in1003.0 mb 0.00 in0.0 mm 0.00 in0.0 mm 0.04 in1.0 mm
07:35 PM 39.0°F3.9°C 36.9°F2.7°C 92% 4.4 mph SE7.1 kmh SE 4.4 mph7.1 kmh 29.62 in1003.0 mb 0.00 in0.0 mm 0.00 in0.0 mm 0.04 in1.0 mm
07:40 PM 39.0°F3.9°C 36.9°F2.7°C 92% 1.6 mph SE2.6 kmh SE 4.6 mph7.4 kmh 29.62 in1003.0 mb 0.00 in0.0 mm 0.00 in0.0 mm 0.04 in1.0 mm
07:45 PM 39.0°F3.9°C 36.9°F2.7°C 92% 1.1 mph ESE1.8 kmh ESE 4.6 mph7.4 kmh 29.62 in1003.0 mb 0.00 in0.0 mm 0.00 in0.0 mm 0.04 in1.0 mm
07:50 PM 39.0°F3.9°C 36.9°F2.7°C 92% 1.4 mph SSE2.3 kmh SSE 3.3 mph5.3 kmh 29.62 in1003.0 mb 0.00 in0.0 mm 0.00 in0.0 mm 0.04 in1.0 mm
07:55 PM 38.8°F3.8°C 36.7°F2.6°C 92% 3.3 mph SE5.3 kmh SE 3.3 mph5.3 kmh 29.62 in1003.0 mb 0.00 in0.0 mm 0.00 in0.0 mm 0.04 in1.0 mm
08:00 PM 38.8°F3.8°C 36.7°F2.6°C 92% 3.5 mph E5.6 kmh E 3.5 mph5.6 kmh 29.62 in1003.0 mb 0.00 in0.0 mm 0.00 in0.0 mm 0.04 in1.0 mm
08:05 PM 38.8°F3.8°C 36.7°F2.6°C 92% Calm Calm 3.5 mph5.6 kmh 29.62 in1003.0 mb 0.00 in0.0 mm 0.00 in0.0 mm 0.04 in1.0 mm
08:10 PM 38.8°F3.8°C 36.7°F2.6°C 92% 1.6 mph E2.6 kmh E 3.5 mph5.6 kmh 29.62 in1003.0 mb 0.00 in0.0 mm 0.00 in0.0 mm 0.04 in1.0 mm
08:15 PM 38.8°F3.8°C 36.7°F2.6°C 92% 1.4 mph ESE2.3 kmh ESE 4.6 mph7.4 kmh 29.62 in1003.0 mb 0.00 in0.0 mm 0.00 in0.0 mm 0.04 in1.0 mm
08:20 PM 38.8°F3.8°C 36.7°F2.6°C 92% Calm Calm 4.6 mph7.4 kmh 29.62 in1003.0 mb 0.00 in0.0 mm 0.00 in0.0 mm 0.04 in1.0 mm
08:25 PM 38.8°F3.8°C 36.7°F2.6°C 92% 2.7 mph E4.3 kmh E 3.5 mph5.6 kmh 29.65 in1004.1 mb 0.00 in0.0 mm 0.00 in0.0 mm 0.04 in1.0 mm
08:30 PM 38.8°F3.8°C 36.7°F2.6°C 92% 2.7 mph E4.3 kmh E 3.5 mph5.6 kmh 29.65 in1004.1 mb 0.00 in0.0 mm 0.00 in0.0 mm 0.04 in1.0 mm
08:35 PM 38.8°F3.8°C 36.7°F2.6°C 92% 1.4 mph E2.3 kmh E 4.1 mph6.6 kmh 29.65 in1004.1 mb 0.00 in0.0 mm 0.00 in0.0 mm 0.04 in1.0 mm
08:40 PM 38.8°F3.8°C 36.7°F2.6°C 92% Calm Calm 4.6 mph7.4 kmh 29.65 in1004.1 mb 0.00 in0.0 mm 0.00 in0.0 mm 0.04 in1.0 mm
08:45 PM 38.8°F3.8°C 37.0°F2.8°C 93% Calm Calm 4.9 mph7.9 kmh 29.65 in1004.1 mb 0.00 in0.0 mm 0.00 in0.0 mm 0.04 in1.0 mm
08:50 PM 38.8°F3.8°C 36.7°F2.6°C 92% Calm Calm 4.9 mph7.9 kmh 29.65 in1004.1 mb 0.00 in0.0 mm 0.00 in0.0 mm 0.04 in1.0 mm
08:55 PM 38.8°F3.8°C 37.0°F2.8°C 93% 1.4 mph NE2.3 kmh NE 3.3 mph5.3 kmh 29.65 in1004.1 mb 0.00 in0.0 mm 0.00 in0.0 mm 0.04 in1.0 mm
09:00 PM 38.8°F3.8°C 37.0°F2.8°C 93% 1.6 mph E2.6 kmh E 2.5 mph4.0 kmh 29.65 in1004.1 mb 0.00 in0.0 mm 0.00 in0.0 mm 0.04 in1.0 mm
09:05 PM 38.8°F3.8°C 37.0°F2.8°C 93% Calm Calm 2.5 mph4.0 kmh 29.65 in1004.1 mb 0.00 in0.0 mm 0.00 in0.0 mm 0.04 in1.0 mm
09:10 PM 39.0°F3.9°C 37.2°F2.9°C 93% 1.4 mph ESE2.3 kmh ESE 1.6 mph2.6 kmh 29.65 in1004.1 mb 0.00 in0.0 mm 0.00 in0.0 mm 0.04 in1.0 mm
09:15 PM 38.8°F3.8°C 37.0°F2.8°C 93% 2.5 mph E4.0 kmh E 3.3 mph5.3 kmh 29.68 in1005.1 mb 0.00 in0.0 mm 0.00 in0.0 mm 0.04 in1.0 mm
09:20 PM 38.8°F3.8°C 37.0°F2.8°C 93% Calm Calm 3.3 mph5.3 kmh 29.68 in1005.1 mb 0.00 in0.0 mm 0.00 in0.0 mm 0.04 in1.0 mm
09:25 PM 38.8°F3.8°C 37.0°F2.8°C 93% 3.5 mph E5.6 kmh E 3.5 mph5.6 kmh 29.68 in1005.1 mb 0.00 in0.0 mm 0.00 in0.0 mm 0.04 in1.0 mm
09:30 PM 38.8°F3.8°C 37.0°F2.8°C 93% 1.6 mph E2.6 kmh E 3.5 mph5.6 kmh 29.68 in1005.1 mb 0.00 in0.0 mm 0.00 in0.0 mm 0.04 in1.0 mm
09:35 PM 38.8°F3.8°C 37.0°F2.8°C 93% 3.3 mph E5.3 kmh E 3.5 mph5.6 kmh 29.68 in1005.1 mb 0.00 in0.0 mm 0.00 in0.0 mm 0.04 in1.0 mm
09:40 PM 38.8°F3.8°C 37.0°F2.8°C 93% 1.9 mph E3.1 kmh E 3.3 mph5.3 kmh 29.68 in1005.1 mb 0.00 in0.0 mm 0.00 in0.0 mm 0.04 in1.0 mm
09:45 PM 38.8°F3.8°C 37.0°F2.8°C 93% 2.5 mph E4.0 kmh E 3.3 mph5.3 kmh 29.68 in1005.1 mb 0.00 in0.0 mm 0.00 in0.0 mm 0.04 in1.0 mm
09:50 PM 39.0°F3.9°C 37.2°F2.9°C 93% 2.5 mph E4.0 kmh E 3.0 mph4.8 kmh 29.68 in1005.1 mb 0.00 in0.0 mm 0.00 in0.0 mm 0.04 in1.0 mm
09:55 PM 39.0°F3.9°C 37.2°F2.9°C 93% Calm Calm 3.0 mph4.8 kmh 29.71 in1006.1 mb 0.00 in0.0 mm 0.00 in0.0 mm 0.04 in1.0 mm
10:00 PM 39.0°F3.9°C 37.2°F2.9°C 93% Calm Calm 2.5 mph4.0 kmh 29.71 in1006.1 mb 0.00 in0.0 mm 0.00 in0.0 mm 0.04 in1.0 mm
10:05 PM 39.0°F3.9°C 37.2°F2.9°C 93% Calm Calm -- 29.71 in1006.1 mb 0.00 in0.0 mm 0.00 in0.0 mm 0.04 in1.0 mm
10:10 PM 39.0°F3.9°C 37.2°F2.9°C 93% Calm Calm -- 29.71 in1006.1 mb 0.00 in0.0 mm 0.00 in0.0 mm 0.04 in1.0 mm
10:15 PM 39.2°F4.0°C 37.3°F2.9°C 93% Calm Calm -- 29.71 in1006.1 mb 0.00 in0.0 mm 0.00 in0.0 mm 0.04 in1.0 mm
10:20 PM 39.2°F4.0°C 37.3°F2.9°C 93% Calm Calm -- 29.71 in1006.1 mb 0.00 in0.0 mm 0.00 in0.0 mm 0.04 in1.0 mm
10:25 PM 39.2°F4.0°C 37.3°F2.9°C 93% Calm Calm -- 29.71 in1006.1 mb 0.00 in0.0 mm 0.00 in0.0 mm 0.04 in1.0 mm
10:30 PM 39.2°F4.0°C 37.3°F2.9°C 93% Calm Calm -- 29.71 in1006.1 mb 0.00 in0.0 mm 0.00 in0.0 mm 0.04 in1.0 mm
10:35 PM 39.2°F4.0°C 37.3°F2.9°C 93% Calm Calm -- 29.71 in1006.1 mb 0.00 in0.0 mm 0.00 in0.0 mm 0.04 in1.0 mm
10:40 PM 39.0°F3.9°C 37.2°F2.9°C 93% Calm Calm -- 29.71 in1006.1 mb 0.00 in0.0 mm 0.00 in0.0 mm 0.04 in1.0 mm
10:45 PM 38.8°F3.8°C 37.0°F2.8°C 93% Calm Calm -- 29.71 in1006.1 mb 0.00 in0.0 mm 0.00 in0.0 mm 0.04 in1.0 mm
10:50 PM 39.0°F3.9°C 37.2°F2.9°C 93% Calm Calm -- 29.71 in1006.1 mb 0.00 in0.0 mm 0.00 in0.0 mm 0.04 in1.0 mm
10:55 PM 38.8°F3.8°C 37.3°F2.9°C 94% Calm Calm -- 29.71 in1006.1 mb 0.00 in0.0 mm 0.00 in0.0 mm 0.04 in1.0 mm
11:00 PM 38.8°F3.8°C 37.3°F2.9°C 94% Calm Calm -- 29.71 in1006.1 mb 0.00 in0.0 mm 0.00 in0.0 mm 0.04 in1.0 mm
11:05 PM 38.8°F3.8°C 37.3°F2.9°C 94% Calm Calm -- 29.71 in1006.1 mb 0.00 in0.0 mm 0.00 in0.0 mm 0.04 in1.0 mm
11:10 PM 38.8°F3.8°C 37.3°F2.9°C 94% Calm Calm -- 29.71 in1006.1 mb 0.00 in0.0 mm 0.00 in0.0 mm 0.04 in1.0 mm
11:15 PM 38.8°F3.8°C 37.3°F2.9°C 94% Calm Calm -- 29.71 in1006.1 mb 0.00 in0.0 mm 0.00 in0.0 mm 0.04 in1.0 mm
11:20 PM 38.8°F3.8°C 37.3°F2.9°C 94% Calm Calm -- 29.71 in1006.1 mb 0.00 in0.0 mm 0.00 in0.0 mm 0.04 in1.0 mm
11:25 PM 38.8°F3.8°C 37.5°F3.1°C 95% Calm Calm -- 29.71 in1006.1 mb 0.00 in0.0 mm 0.00 in0.0 mm 0.04 in1.0 mm
11:30 PM 38.8°F3.8°C 37.5°F3.1°C 95% Calm Calm -- 29.71 in1006.1 mb 0.00 in0.0 mm 0.00 in0.0 mm 0.04 in1.0 mm
11:35 PM 39.0°F3.9°C 37.7°F3.2°C 95% Calm Calm -- 29.71 in1006.1 mb 0.00 in0.0 mm 0.00 in0.0 mm 0.04 in1.0 mm
11:40 PM 39.0°F3.9°C 37.7°F3.2°C 95% Calm Calm -- 29.71 in1006.1 mb 0.00 in0.0 mm 0.00 in0.0 mm 0.04 in1.0 mm
11:45 PM 39.0°F3.9°C 37.7°F3.2°C 95% Calm Calm -- 29.71 in1006.1 mb 0.00 in0.0 mm 0.00 in0.0 mm 0.04 in1.0 mm
11:50 PM 39.0°F3.9°C 37.7°F3.2°C 95% Calm Calm -- 29.71 in1006.1 mb 0.00 in0.0 mm 0.00 in0.0 mm 0.04 in1.0 mm
11:55 PM 39.2°F4.0°C 37.9°F3.3°C 95% Calm Calm -- 29.71 in1006.1 mb 0.00 in0.0 mm 0.00 in0.0 mm 0.04 in1.0 mm